createdAt,value
2023-05-20T00:00:48.537Z,12.09
2023-05-20T00:03:20.387Z,12.10
2023-05-20T00:05:47.255Z,12.10
2023-05-20T00:08:14.091Z,12.08
2023-05-20T00:10:41.385Z,12.00
2023-05-20T00:13:08.220Z,11.92
2023-05-20T00:15:36.612Z,11.95
2023-05-20T00:18:04.303Z,11.94
2023-05-20T00:20:32.352Z,11.91
2023-05-20T00:22:59.136Z,11.85
2023-05-20T00:25:25.863Z,11.83
2023-05-20T00:27:52.492Z,11.87
2023-05-20T00:30:19.283Z,11.87
2023-05-20T00:32:46.163Z,11.87
2023-05-20T00:35:13.185Z,11.93
2023-05-20T00:37:39.865Z,11.91
2023-05-20T00:40:07.435Z,11.88
2023-05-20T00:42:34.179Z,11.88
2023-05-20T00:45:01.256Z,11.88
2023-05-20T00:47:30.777Z,11.86
2023-05-20T00:49:57.806Z,11.93
2023-05-20T00:52:25.700Z,11.90
2023-05-20T00:54:52.850Z,11.82
2023-05-20T00:57:20.613Z,11.82
2023-05-20T00:59:47.524Z,11.77
2023-05-20T01:02:14.476Z,11.78
2023-05-20T01:04:46.651Z,11.80
2023-05-20T01:07:16.521Z,11.81
2023-05-20T01:09:43.744Z,11.77
2023-05-20T01:12:21.184Z,11.76
2023-05-20T01:15:00.498Z,11.75
2023-05-20T01:17:33.068Z,11.77
2023-05-20T01:20:02.663Z,11.75
2023-05-20T01:22:29.919Z,11.71
2023-05-20T01:24:57.186Z,11.76
2023-05-20T01:27:26.654Z,11.76
2023-05-20T01:29:54.451Z,11.73
2023-05-20T01:32:43.155Z,11.74
2023-05-20T01:35:10.690Z,11.66
2023-05-20T01:37:40.592Z,11.65
2023-05-20T01:40:09.009Z,11.55
2023-05-20T01:42:36.634Z,11.51
2023-05-20T01:45:03.899Z,11.50
2023-05-20T01:47:31.350Z,11.51
2023-05-20T01:49:58.141Z,11.47
2023-05-20T01:52:24.925Z,11.41
2023-05-20T01:54:51.617Z,11.40
2023-05-20T01:57:19.789Z,11.41
2023-05-20T01:59:46.633Z,11.43
2023-05-20T02:02:14.438Z,11.33
2023-05-20T02:04:47.812Z,11.35
2023-05-20T02:07:19.077Z,11.45
2023-05-20T02:09:46.907Z,11.44
2023-05-20T02:12:17.239Z,11.40
2023-05-20T02:14:45.704Z,11.43
2023-05-20T02:17:16.710Z,11.45
2023-05-20T02:19:47.372Z,11.39
2023-05-20T02:22:14.674Z,11.42
2023-05-20T02:24:43.733Z,11.32
2023-05-20T02:27:10.872Z,11.31
2023-05-20T02:29:37.614Z,11.26
2023-05-20T02:32:04.894Z,11.28
2023-05-20T02:34:32.963Z,11.39
2023-05-20T02:36:59.801Z,11.40
2023-05-20T02:39:26.688Z,11.47
2023-05-20T02:41:53.369Z,11.51
2023-05-20T02:44:20.356Z,11.55
2023-05-20T02:46:48.522Z,11.50
2023-05-20T02:49:15.238Z,11.52
2023-05-20T02:51:41.998Z,11.45
2023-05-20T02:54:08.731Z,11.37
2023-05-20T02:56:35.458Z,11.41
2023-05-20T02:59:03.866Z,11.40
2023-05-20T03:01:33.912Z,11.39
2023-05-20T03:04:02.408Z,11.43
2023-05-20T03:06:32.290Z,11.44
2023-05-20T03:08:59.415Z,11.42
2023-05-20T03:11:26.422Z,11.39
2023-05-20T03:13:53.283Z,11.36
2023-05-20T03:16:20.116Z,11.32
2023-05-20T03:18:46.874Z,11.30
2023-05-20T03:21:13.817Z,11.28
2023-05-20T03:23:40.513Z,11.22
2023-05-20T03:26:08.404Z,11.21
2023-05-20T03:28:36.271Z,11.23
2023-05-20T03:31:03.086Z,11.21
2023-05-20T03:33:31.533Z,11.22
2023-05-20T03:35:58.471Z,11.15
2023-05-20T03:38:25.254Z,11.22
2023-05-20T03:40:51.937Z,11.26
2023-05-20T03:43:18.610Z,11.26
2023-05-20T03:45:45.304Z,11.24
2023-05-20T03:48:13.626Z,11.23
2023-05-20T03:50:40.500Z,11.20
2023-05-20T03:53:07.215Z,11.19
2023-05-20T03:55:39.589Z,11.18
2023-05-20T03:58:06.979Z,11.21
2023-05-20T04:00:34.063Z,11.17
2023-05-20T04:03:01.434Z,11.15
2023-05-20T04:05:28.362Z,11.21
2023-05-20T04:07:57.547Z,11.18
2023-05-20T04:10:25.416Z,11.17
2023-05-20T04:12:53.938Z,11.16
2023-05-20T04:15:24.006Z,11.17
2023-05-20T04:17:56.796Z,11.16
2023-05-20T04:20:24.470Z,11.18
2023-05-20T04:22:55.200Z,11.19
2023-05-20T04:25:22.335Z,11.21
2023-05-20T04:27:49.870Z,11.21
2023-05-20T04:30:21.891Z,11.19
2023-05-20T04:32:50.905Z,11.18
2023-05-20T04:35:18.277Z,11.17
2023-05-20T04:37:49.439Z,11.23
2023-05-20T04:40:17.281Z,11.25
2023-05-20T04:42:44.941Z,11.28
2023-05-20T04:45:12.599Z,11.35
2023-05-20T04:47:41.917Z,11.38
2023-05-20T04:50:11.080Z,11.42
2023-05-20T04:52:41.935Z,11.43
2023-05-20T04:55:12.568Z,11.42
2023-05-20T04:57:42.069Z,11.40
2023-05-20T05:00:11.466Z,11.44
2023-05-20T05:02:39.209Z,11.48
2023-05-20T05:05:06.789Z,11.49
2023-05-20T05:07:33.780Z,11.50
2023-05-20T05:10:01.207Z,11.48
2023-05-20T05:12:30.253Z,11.48
2023-05-20T05:14:58.819Z,11.54
2023-05-20T05:17:26.237Z,11.56
2023-05-20T05:19:52.976Z,11.56
2023-05-20T05:22:19.818Z,11.56
2023-05-20T05:24:46.741Z,11.60
2023-05-20T05:27:13.585Z,11.62
2023-05-20T05:29:40.952Z,11.67
2023-05-20T05:32:07.884Z,11.75
2023-05-20T05:34:34.603Z,11.71
2023-05-20T05:37:01.344Z,11.81
2023-05-20T05:39:28.105Z,11.88
2023-05-20T05:41:56.222Z,11.83
2023-05-20T05:44:23.374Z,11.90
2023-05-20T05:46:50.212Z,11.81
2023-05-20T05:49:17.298Z,11.76
2023-05-20T05:51:44.507Z,11.83
2023-05-20T05:54:11.933Z,11.86
2023-05-20T05:56:38.871Z,11.96
2023-05-20T05:59:06.005Z,12.02
2023-05-20T06:01:32.903Z,12.07
2023-05-20T06:04:00.123Z,12.12
2023-05-20T06:06:27.086Z,12.09
2023-05-20T06:08:54.125Z,12.07
2023-05-20T06:11:21.770Z,12.05
2023-05-20T06:13:48.594Z,12.09
2023-05-20T06:16:16.711Z,12.17
2023-05-20T06:18:43.979Z,12.17
2023-05-20T06:21:10.777Z,12.14
2023-05-20T06:23:37.783Z,12.23
2023-05-20T06:26:08.210Z,12.05
2023-05-20T06:28:35.009Z,12.13
2023-05-20T06:31:02.568Z,12.17
2023-05-20T06:33:32.945Z,12.17
2023-05-20T06:36:04.294Z,12.22
2023-05-20T06:38:31.080Z,12.27
2023-05-20T06:40:57.831Z,12.21
2023-05-20T06:43:24.654Z,12.35
2023-05-20T06:45:54.872Z,12.40
2023-05-20T06:48:27.345Z,12.43
2023-05-20T06:50:54.171Z,12.47
2023-05-20T06:53:21.508Z,12.44
2023-05-20T06:55:48.228Z,12.54
2023-05-20T06:58:15.256Z,12.53
2023-05-20T07:00:43.077Z,12.47
2023-05-20T07:03:11.786Z,12.46
2023-05-20T07:05:39.265Z,12.44
2023-05-20T07:08:07.553Z,12.43
2023-05-20T07:10:34.858Z,12.53
2023-05-20T07:13:02.136Z,12.64
2023-05-20T07:15:29.144Z,12.64
2023-05-20T07:17:56.954Z,12.84
2023-05-20T07:20:24.714Z,13.03
2023-05-20T07:22:51.586Z,13.08
2023-05-20T07:25:23.977Z,13.20
2023-05-20T07:27:51.294Z,13.23
2023-05-20T07:30:18.211Z,13.34
2023-05-20T07:32:53.183Z,13.54
2023-05-20T07:35:19.960Z,13.73
2023-05-20T07:37:46.755Z,13.76
2023-05-20T07:40:14.514Z,14.05
2023-05-20T07:42:41.884Z,14.32
2023-05-20T07:45:10.180Z,14.27
2023-05-20T07:47:37.306Z,14.03
2023-05-20T07:50:04.313Z,14.14
2023-05-20T07:52:44.182Z,14.38
2023-05-20T07:55:14.961Z,14.26
2023-05-20T07:57:43.595Z,14.48
2023-05-20T08:00:12.310Z,14.67
2023-05-20T08:02:43.785Z,14.89
2023-05-20T08:05:13.826Z,15.27
2023-05-20T08:07:40.894Z,16.13
2023-05-20T08:10:08.840Z,16.60
2023-05-20T08:12:36.773Z,16.45
2023-05-20T08:15:04.413Z,16.07
2023-05-20T08:17:31.183Z,15.66
2023-05-20T08:19:58.283Z,15.71
2023-05-20T08:22:24.963Z,16.60
2023-05-20T08:24:51.833Z,17.12
2023-05-20T08:27:18.668Z,16.79
2023-05-20T08:29:45.635Z,17.13
2023-05-20T08:32:12.460Z,17.16
2023-05-20T08:34:40.054Z,16.84
2023-05-20T08:37:06.785Z,16.79
2023-05-20T08:39:33.474Z,16.87
2023-05-20T08:42:00.380Z,17.14
2023-05-20T08:44:28.302Z,17.30
2023-05-20T08:46:57.046Z,17.24
2023-05-20T08:49:24.306Z,17.41
2023-05-20T08:51:51.192Z,17.83
2023-05-20T08:54:20.396Z,18.60
2023-05-20T08:56:47.874Z,19.32
2023-05-20T08:59:15.283Z,19.52
2023-05-20T09:01:43.768Z,19.59
2023-05-20T09:04:10.648Z,19.94
2023-05-20T09:06:45.203Z,20.43
2023-05-20T09:09:13.167Z,20.56
2023-05-20T09:11:43.468Z,20.70
2023-05-20T09:14:10.190Z,20.18
2023-05-20T09:16:36.904Z,20.31
2023-05-20T09:19:06.367Z,20.13
2023-05-20T09:21:33.180Z,19.98
2023-05-20T09:24:02.389Z,20.42
2023-05-20T09:26:32.936Z,20.54
2023-05-20T09:29:00.815Z,19.54
2023-05-20T09:31:29.452Z,18.90
2023-05-20T09:33:56.714Z,18.80
2023-05-20T09:36:24.511Z,18.81
2023-05-20T09:38:56.950Z,19.03
2023-05-20T09:41:25.932Z,19.69
2023-05-20T09:43:53.695Z,19.53
2023-05-20T09:46:21.475Z,19.11
2023-05-20T09:48:48.775Z,19.19
2023-05-20T09:51:16.784Z,19.33
2023-05-20T09:53:43.892Z,19.32
2023-05-20T09:56:11.334Z,19.38
2023-05-20T09:58:38.902Z,19.25
2023-05-20T10:01:06.784Z,19.28
2023-05-20T10:03:34.357Z,19.93
2023-05-20T10:06:10.432Z,20.48
2023-05-20T10:08:56.998Z,21.40
2023-05-20T10:11:41.421Z,21.42
2023-05-20T10:14:25.363Z,20.91
2023-05-20T10:17:02.288Z,21.32
2023-05-20T10:19:37.973Z,21.41
2023-05-20T10:22:10.456Z,20.83
2023-05-20T10:24:44.452Z,21.33
2023-05-20T10:27:14.752Z,21.77
2023-05-20T10:30:00.762Z,22.13
2023-05-20T10:32:32.512Z,22.50
2023-05-20T10:35:01.192Z,22.52
2023-05-20T10:37:30.574Z,22.80
2023-05-20T10:40:05.752Z,22.74
2023-05-20T10:42:32.488Z,22.07
2023-05-20T10:44:59.216Z,21.90
2023-05-20T10:47:26.592Z,22.04
2023-05-20T10:49:53.505Z,20.90
2023-05-20T10:52:20.793Z,20.14
2023-05-20T10:54:55.561Z,20.49
2023-05-20T10:57:22.579Z,21.44
2023-05-20T10:59:51.341Z,20.96
2023-05-20T11:02:18.664Z,20.45
2023-05-20T11:04:47.132Z,20.75
2023-05-20T11:07:13.839Z,20.65
2023-05-20T11:09:49.899Z,20.71
2023-05-20T11:12:17.467Z,20.36
2023-05-20T11:14:44.241Z,20.22
2023-05-20T11:17:10.951Z,20.10
2023-05-20T11:19:38.408Z,20.15
2023-05-20T11:22:08.349Z,20.11
2023-05-20T11:24:35.595Z,20.32
2023-05-20T11:27:02.696Z,20.54
2023-05-20T11:29:32.238Z,20.25
2023-05-20T11:32:00.555Z,20.00
2023-05-20T11:34:34.694Z,20.04
2023-05-20T11:37:01.551Z,19.79
2023-05-20T11:39:31.503Z,19.63
2023-05-20T11:41:59.124Z,19.63
2023-05-20T11:44:26.445Z,19.43
2023-05-20T11:47:00.242Z,19.19
2023-05-20T11:49:26.982Z,19.02
2023-05-20T11:51:53.687Z,19.05
2023-05-20T11:54:23.109Z,19.19
2023-05-20T11:56:50.131Z,19.06
2023-05-20T11:59:16.795Z,19.10
2023-05-20T12:01:43.696Z,19.15
2023-05-20T12:04:10.927Z,19.37
2023-05-20T12:06:37.794Z,19.18
2023-05-20T12:09:07.330Z,19.14
2023-05-20T12:11:35.844Z,19.33
2023-05-20T12:14:04.075Z,19.41
2023-05-20T12:16:35.433Z,19.38
2023-05-20T12:19:03.046Z,19.41
2023-05-20T12:21:30.173Z,19.33
2023-05-20T12:23:58.161Z,19.82
2023-05-20T12:26:26.786Z,20.37
2023-05-20T12:28:53.877Z,20.58
2023-05-20T12:31:20.804Z,20.32
2023-05-20T12:33:47.674Z,20.68
2023-05-20T12:36:15.024Z,21.16
2023-05-20T12:38:41.784Z,21.46
2023-05-20T12:41:08.664Z,22.06
2023-05-20T12:43:38.442Z,22.41
2023-05-20T12:46:05.898Z,22.15
2023-05-20T12:48:32.659Z,21.54
2023-05-20T12:50:59.782Z,21.82
2023-05-20T12:53:26.561Z,22.13
2023-05-20T12:55:53.426Z,22.09
2023-05-20T12:58:20.226Z,22.06
2023-05-20T13:00:47.027Z,22.16
2023-05-20T13:03:13.877Z,22.58
2023-05-20T13:05:40.767Z,22.33
2023-05-20T13:08:09.067Z,22.14
2023-05-20T13:10:36.251Z,21.92
2023-05-20T13:13:03.187Z,21.65
2023-05-20T13:15:29.937Z,22.26
2023-05-20T13:17:56.843Z,22.26
2023-05-20T13:20:23.579Z,21.75
2023-05-20T13:22:50.475Z,21.99
2023-05-20T13:25:17.488Z,22.11
2023-05-20T13:27:44.157Z,21.89
2023-05-20T13:30:11.219Z,21.28
2023-05-20T13:32:38.051Z,21.02
2023-05-20T13:35:05.386Z,20.66
2023-05-20T13:37:32.107Z,20.51
2023-05-20T13:39:58.928Z,20.52
2023-05-20T13:42:25.669Z,20.48
2023-05-20T13:44:52.337Z,20.50
2023-05-20T13:47:19.090Z,20.53
2023-05-20T13:49:45.785Z,20.56
2023-05-20T13:52:12.544Z,20.64
2023-05-20T13:54:40.104Z,20.79
2023-05-20T13:57:08.063Z,20.94
2023-05-20T13:59:35.177Z,21.27
2023-05-20T14:02:02.604Z,21.79
2023-05-20T14:04:31.200Z,22.23
2023-05-20T14:06:59.431Z,22.34
2023-05-20T14:09:26.458Z,22.53
2023-05-20T14:11:53.321Z,22.35
2023-05-20T14:14:20.037Z,21.90
2023-05-20T14:16:47.361Z,22.14
2023-05-20T14:19:14.208Z,22.00
2023-05-20T14:21:40.989Z,22.09
2023-05-20T14:24:08.915Z,22.00
2023-05-20T14:26:35.742Z,21.66
2023-05-20T14:29:02.590Z,21.86
2023-05-20T14:31:29.338Z,21.90
2023-05-20T14:33:56.114Z,21.61
2023-05-20T14:36:22.803Z,21.76
2023-05-20T14:38:49.829Z,22.11
2023-05-20T14:41:16.751Z,22.25
2023-05-20T14:43:43.653Z,22.21
2023-05-20T14:46:10.663Z,22.20
2023-05-20T14:48:37.541Z,22.13
2023-05-20T14:51:04.406Z,22.24
2023-05-20T14:53:31.178Z,22.28
2023-05-20T14:55:58.068Z,22.36
2023-05-20T14:58:24.990Z,22.05
2023-05-20T15:00:53.277Z,21.85
2023-05-20T15:03:20.513Z,21.80
2023-05-20T15:05:47.324Z,21.97
2023-05-20T15:08:14.035Z,21.97
2023-05-20T15:10:40.786Z,21.80
2023-05-20T15:13:07.635Z,21.99
2023-05-20T15:15:34.456Z,21.96
2023-05-20T15:18:01.433Z,21.98
2023-05-20T15:20:28.260Z,22.01
2023-05-20T15:22:55.120Z,21.92
2023-05-20T15:25:21.842Z,21.71
2023-05-20T15:27:48.624Z,21.68
2023-05-20T15:30:15.724Z,21.62
2023-05-20T15:32:42.837Z,21.55
2023-05-20T15:35:09.915Z,21.58
2023-05-20T15:37:36.688Z,21.79
2023-05-20T15:40:04.676Z,21.76
2023-05-20T15:42:31.964Z,21.80
2023-05-20T15:44:58.790Z,21.88
2023-05-20T15:47:26.074Z,21.83
2023-05-20T15:49:54.469Z,21.57
2023-05-20T15:52:21.247Z,21.60
2023-05-20T15:54:48.009Z,21.52
2023-05-20T15:57:14.736Z,21.52
2023-05-20T15:59:41.433Z,21.55
2023-05-20T16:02:08.357Z,21.54
2023-05-20T16:04:35.157Z,21.56
2023-05-20T16:07:01.924Z,21.52
2023-05-20T16:09:28.590Z,21.42
2023-05-20T16:11:56.217Z,21.34
2023-05-20T16:14:22.914Z,21.31
2023-05-20T16:16:49.731Z,21.32
2023-05-20T16:19:16.617Z,21.27
2023-05-20T16:21:43.458Z,21.14
2023-05-20T16:24:10.368Z,21.00
2023-05-20T16:26:37.080Z,20.96
2023-05-20T16:29:03.862Z,21.00
2023-05-20T16:31:30.652Z,20.93
2023-05-20T16:33:57.604Z,20.91
2023-05-20T16:36:24.319Z,20.79
2023-05-20T16:38:51.074Z,20.78
2023-05-20T16:41:17.884Z,20.69
2023-05-20T16:43:44.700Z,20.79
2023-05-20T16:46:12.865Z,20.77
2023-05-20T16:48:40.295Z,20.71
2023-05-20T16:51:06.988Z,20.65
2023-05-20T16:53:33.872Z,20.57
2023-05-20T16:56:00.823Z,20.52
2023-05-20T16:58:27.522Z,20.46
2023-05-20T17:00:55.160Z,20.42
2023-05-20T17:03:22.123Z,20.43
2023-05-20T17:05:48.843Z,20.40
2023-05-20T17:08:16.136Z,20.42
2023-05-20T17:10:42.922Z,20.31
2023-05-20T17:13:09.715Z,20.29
2023-05-20T17:15:37.364Z,20.32
2023-05-20T17:18:04.283Z,20.28
2023-05-20T17:20:31.597Z,20.30
2023-05-20T17:22:58.478Z,20.15
2023-05-20T17:25:25.516Z,20.18
2023-05-20T17:27:52.200Z,20.22
2023-05-20T17:30:19.068Z,20.16
2023-05-20T17:32:45.961Z,19.98
2023-05-20T17:35:12.921Z,20.06
2023-05-20T17:37:39.614Z,20.02
2023-05-20T17:40:06.829Z,19.94
2023-05-20T17:42:33.858Z,19.87
2023-05-20T17:45:00.553Z,19.87
2023-05-20T17:47:27.318Z,19.84
2023-05-20T17:49:54.084Z,19.84
2023-05-20T17:52:20.995Z,19.83
2023-05-20T17:54:47.718Z,19.71
2023-05-20T17:57:14.404Z,19.72
2023-05-20T17:59:42.072Z,19.65
2023-05-20T18:02:09.098Z,19.54
2023-05-20T18:04:35.988Z,19.50
2023-05-20T18:07:04.118Z,19.40
2023-05-20T18:09:31.152Z,19.33
2023-05-20T18:11:58.015Z,19.25
2023-05-20T18:14:26.608Z,19.26
2023-05-20T18:16:54.811Z,19.10
2023-05-20T18:19:21.642Z,19.05
2023-05-20T18:21:48.499Z,18.99
2023-05-20T18:24:16.717Z,18.88
2023-05-20T18:26:43.839Z,18.83
2023-05-20T18:29:12.416Z,18.84
2023-05-20T18:31:40.376Z,18.71
2023-05-20T18:34:08.158Z,18.65
2023-05-20T18:36:35.074Z,18.58
2023-05-20T18:39:01.806Z,18.49
2023-05-20T18:41:39.548Z,18.36
2023-05-20T18:44:14.770Z,18.32
2023-05-20T18:46:41.701Z,18.26
2023-05-20T18:49:10.780Z,18.18
2023-05-20T18:51:38.579Z,18.08
2023-05-20T18:54:05.663Z,18.09
2023-05-20T18:56:32.614Z,18.02
2023-05-20T18:58:59.651Z,18.03
2023-05-20T19:01:27.170Z,17.98
2023-05-20T19:03:54.002Z,17.94
2023-05-20T19:06:22.084Z,17.82
2023-05-20T19:08:49.591Z,17.81
2023-05-20T19:11:16.498Z,17.79
2023-05-20T19:13:43.263Z,17.68
2023-05-20T19:16:10.099Z,17.62
2023-05-20T19:18:37.014Z,17.64
2023-05-20T19:21:03.984Z,17.62
2023-05-20T19:23:30.680Z,17.60
2023-05-20T19:25:57.381Z,17.53
2023-05-20T19:28:24.151Z,17.54
2023-05-20T19:30:50.985Z,17.53
2023-05-20T19:33:17.848Z,17.48
2023-05-20T19:35:44.550Z,17.36
2023-05-20T19:38:11.277Z,17.42
2023-05-20T19:40:38.143Z,17.40
2023-05-20T19:43:04.840Z,17.32
2023-05-20T19:45:32.311Z,17.28
2023-05-20T19:47:59.143Z,17.26
2023-05-20T19:50:25.893Z,17.26
2023-05-20T19:52:52.584Z,17.17
2023-05-20T19:55:19.252Z,17.11
2023-05-20T19:57:47.726Z,17.12
2023-05-20T20:00:15.488Z,17.10
2023-05-20T20:02:42.218Z,17.00
2023-05-20T20:05:09.954Z,17.00
2023-05-20T20:07:36.807Z,16.92
2023-05-20T20:10:03.888Z,16.88
2023-05-20T20:12:30.726Z,16.81
2023-05-20T20:14:57.470Z,16.85
2023-05-20T20:17:24.252Z,16.85
2023-05-20T20:19:53.264Z,16.85
2023-05-20T20:22:20.228Z,16.85
2023-05-20T20:24:47.505Z,16.86
2023-05-20T20:27:14.209Z,16.86
2023-05-20T20:29:43.757Z,16.84
2023-05-20T20:32:10.955Z,16.77
2023-05-20T20:34:37.751Z,16.75
2023-05-20T20:37:04.927Z,16.66
2023-05-20T20:39:31.766Z,16.61
2023-05-20T20:41:59.014Z,16.59
2023-05-20T20:44:26.757Z,16.46
2023-05-20T20:46:55.211Z,16.44
2023-05-20T20:49:23.196Z,16.42
2023-05-20T20:51:50.381Z,16.39
2023-05-20T20:54:17.190Z,16.34
2023-05-20T20:56:47.024Z,16.21
2023-05-20T20:59:15.843Z,16.18
2023-05-20T21:01:43.166Z,16.04
2023-05-20T21:04:13.472Z,16.06
2023-05-20T21:06:46.089Z,16.01
2023-05-20T21:09:14.045Z,15.89
2023-05-20T21:11:45.388Z,15.84
2023-05-20T21:14:13.016Z,15.88
2023-05-20T21:16:40.308Z,15.87
2023-05-20T21:19:07.074Z,15.83
2023-05-20T21:21:34.162Z,15.79
2023-05-20T21:24:00.862Z,15.59
2023-05-20T21:26:27.564Z,15.70
2023-05-20T21:28:54.283Z,15.66
2023-05-20T21:31:21.170Z,15.64
2023-05-20T21:33:48.254Z,15.63
2023-05-20T21:36:15.097Z,15.63
2023-05-20T21:38:41.832Z,15.65
2023-05-20T21:41:09.486Z,15.59
2023-05-20T21:43:37.513Z,15.56
2023-05-20T21:46:05.862Z,15.63
2023-05-20T21:48:32.605Z,15.61
2023-05-20T21:50:59.473Z,15.71
2023-05-20T21:53:26.314Z,15.69
2023-05-20T21:55:53.573Z,15.69
2023-05-20T21:58:20.285Z,15.68
2023-05-20T22:00:47.025Z,15.73
2023-05-20T22:03:14.746Z,15.80
2023-05-20T22:05:45.864Z,15.85
2023-05-20T22:08:13.265Z,15.89
2023-05-20T22:10:40.333Z,15.89
2023-05-20T22:13:07.109Z,15.90
2023-05-20T22:15:34.223Z,15.91
2023-05-20T22:18:04.225Z,15.87
2023-05-20T22:20:33.800Z,15.85
2023-05-20T22:23:01.180Z,15.82
2023-05-20T22:25:27.868Z,15.83
2023-05-20T22:27:54.575Z,15.85
2023-05-20T22:30:21.304Z,15.79
2023-05-20T22:32:48.356Z,15.85
2023-05-20T22:35:15.461Z,15.77
2023-05-20T22:37:42.125Z,15.84
2023-05-20T22:40:09.583Z,15.82
2023-05-20T22:42:36.240Z,15.82
2023-05-20T22:45:03.100Z,15.72
2023-05-20T22:47:29.864Z,15.66
2023-05-20T22:49:57.527Z,15.57
2023-05-20T22:52:25.427Z,15.56
2023-05-20T22:54:52.174Z,15.50
2023-05-20T22:57:18.870Z,15.47
2023-05-20T22:59:45.647Z,15.30
2023-05-20T23:02:12.355Z,15.27
2023-05-20T23:04:39.126Z,15.19
2023-05-20T23:07:06.481Z,15.12
2023-05-20T23:09:33.144Z,15.05
2023-05-20T23:11:59.858Z,15.05
2023-05-20T23:14:27.404Z,15.02
2023-05-20T23:16:54.134Z,14.99
2023-05-20T23:19:21.077Z,14.99
2023-05-20T23:21:47.962Z,14.98
2023-05-20T23:24:15.372Z,15.02
2023-05-20T23:26:43.101Z,14.98
2023-05-20T23:29:10.576Z,15.01
2023-05-20T23:31:37.344Z,15.02
2023-05-20T23:34:04.065Z,15.00
2023-05-20T23:36:34.457Z,14.99
2023-05-20T23:39:02.497Z,14.97
2023-05-20T23:41:29.363Z,14.94
2023-05-20T23:43:56.116Z,14.94
2023-05-20T23:46:22.946Z,14.90
2023-05-20T23:48:50.125Z,14.91
2023-05-20T23:51:16.895Z,14.92
2023-05-20T23:53:44.586Z,14.96
2023-05-20T23:56:11.485Z,14.97
2023-05-20T23:58:38.517Z,14.98
